Aviation Digital Data Service (ADDS)

Output produced by METARs form (0242 UTC 24 July 2017)
found at http://www.aviationweather.gov/adds/metars/
 
TAF SVBC 232200Z 2400/2500 11008KT 9000 -DZ BKN010 TX34/19Z TN25/08Z 
     BECMG 2400/2404 09006KT 9999 SCT010
       
TAF SVMI 232200Z 2400/2500 05004KT 9000 -DZ BKN016 TX33/19Z TN24/09Z 
     BECMG 2400/2404 05005KT 9999 BKN016
       
TAF SVMC 232200Z 2400/2500 27010KT 9000 DZ BKN016 TX35/19Z TN25/08Z 
     BECMG 2400/2404 29008KT 9999 SCT016 SCT080
       
TAF SVMG 232200Z 2400/2500 08010KT 9000 +DZ SCT010 TX33/19Z TN25/07Z 
     BECMG 2400/2404 07008KT 9999 SCT010 SCT080
       
TAF SVJC 232200Z 2400/2500 06010KT 9999 FEW010 TX35/19Z TN25/08Z 
     BECMG 2400/2404 08009KT SCT016
       
TAF SVSA 232200Z 2400/2500 19008KT 9999 SCT013 SCT070 TX33/19Z TN23/08Z 
     BECMG 2400/2404 18005KT 9999 BKN013